sensor_id;sensor_type;location;lat;lon;timestamp;temperature;humidity
54518;DHT22;40423;53.176;6.002;2022-07-30T00:00:08;16.70;99.90
54518;DHT22;40423;53.176;6.002;2022-07-30T00:02:34;16.70;99.90
54518;DHT22;40423;53.176;6.002;2022-07-30T00:05:00;16.70;99.90
54518;DHT22;40423;53.176;6.002;2022-07-30T00:07:26;16.60;99.90
54518;DHT22;40423;53.176;6.002;2022-07-30T00:09:52;16.60;99.90
54518;DHT22;40423;53.176;6.002;2022-07-30T00:12:18;16.60;99.90
54518;DHT22;40423;53.176;6.002;2022-07-30T00:14:44;16.50;99.90
54518;DHT22;40423;53.176;6.002;2022-07-30T00:17:10;16.50;99.90
54518;DHT22;40423;53.176;6.002;2022-07-30T00:19:36;16.40;99.90
54518;DHT22;40423;53.176;6.002;2022-07-30T00:22:02;16.30;99.90
54518;DHT22;40423;53.176;6.002;2022-07-30T00:24:27;16.30;99.90
54518;DHT22;40423;53.176;6.002;2022-07-30T00:26:53;16.30;99.90
54518;DHT22;40423;53.176;6.002;2022-07-30T00:29:19;16.20;99.90
54518;DHT22;40423;53.176;6.002;2022-07-30T00:31:45;16.20;99.90
54518;DHT22;40423;53.176;6.002;2022-07-30T00:34:10;16.10;99.90
54518;DHT22;40423;53.176;6.002;2022-07-30T00:36:39;16.10;99.90
54518;DHT22;40423;53.176;6.002;2022-07-30T00:39:05;16.10;99.90
54518;DHT22;40423;53.176;6.002;2022-07-30T00:41:31;16.00;99.90
54518;DHT22;40423;53.176;6.002;2022-07-30T00:43:56;16.00;99.90
54518;DHT22;40423;53.176;6.002;2022-07-30T00:46:22;16.00;99.90
54518;DHT22;40423;53.176;6.002;2022-07-30T00:48:48;15.90;99.90
54518;DHT22;40423;53.176;6.002;2022-07-30T00:51:14;15.90;99.90
54518;DHT22;40423;53.176;6.002;2022-07-30T00:53:39;15.90;99.90
54518;DHT22;40423;53.176;6.002;2022-07-30T00:56:06;15.90;99.90
54518;DHT22;40423;53.176;6.002;2022-07-30T00:58:32;15.80;99.90
54518;DHT22;40423;53.176;6.002;2022-07-30T01:00:58;15.80;99.90
54518;DHT22;40423;53.176;6.002;2022-07-30T01:03:24;15.80;99.90
54518;DHT22;40423;53.176;6.002;2022-07-30T01:05:49;15.70;99.90
54518;DHT22;40423;53.176;6.002;2022-07-30T01:08:16;15.70;99.90
54518;DHT22;40423;53.176;6.002;2022-07-30T01:10:41;15.60;99.90
54518;DHT22;40423;53.176;6.002;2022-07-30T01:13:07;15.60;99.90
54518;DHT22;40423;53.176;6.002;2022-07-30T01:15:34;15.50;99.90
54518;DHT22;40423;53.176;6.002;2022-07-30T01:18:02;15.40;99.90
54518;DHT22;40423;53.176;6.002;2022-07-30T01:20:35;15.30;99.90
54518;DHT22;40423;53.176;6.002;2022-07-30T01:23:38;15.20;99.90
54518;DHT22;40423;53.176;6.002;2022-07-30T01:26:12;15.20;99.90
54518;DHT22;40423;53.176;6.002;2022-07-30T01:28:42;15.30;99.90
54518;DHT22;40423;53.176;6.002;2022-07-30T01:31:09;15.20;99.90
54518;DHT22;40423;53.176;6.002;2022-07-30T01:33:39;15.20;99.90
54518;DHT22;40423;53.176;6.002;2022-07-30T01:36:09;15.30;99.90
54518;DHT22;40423;53.176;6.002;2022-07-30T01:38:36;15.30;99.90
54518;DHT22;40423;53.176;6.002;2022-07-30T01:41:05;15.20;99.90
54518;DHT22;40423;53.176;6.002;2022-07-30T01:43:35;15.30;99.90
54518;DHT22;40423;53.176;6.002;2022-07-30T01:46:02;15.20;99.90
54518;DHT22;40423;53.176;6.002;2022-07-30T01:48:29;15.20;99.90
54518;DHT22;40423;53.176;6.002;2022-07-30T01:50:58;15.20;99.90
54518;DHT22;40423;53.176;6.002;2022-07-30T01:53:26;15.20;99.90
54518;DHT22;40423;53.176;6.002;2022-07-30T01:55:55;15.20;99.90
54518;DHT22;40423;53.176;6.002;2022-07-30T01:58:25;15.10;99.90
54518;DHT22;40423;53.176;6.002;2022-07-30T02:00:52;15.10;99.90
54518;DHT22;40423;53.176;6.002;2022-07-30T02:03:19;15.10;99.90
54518;DHT22;40423;53.176;6.002;2022-07-30T02:05:51;15.10;99.90
54518;DHT22;40423;53.176;6.002;2022-07-30T02:11:01;15.10;99.90
54518;DHT22;40423;53.176;6.002;2022-07-30T02:13:29;15.10;99.90
54518;DHT22;40423;53.176;6.002;2022-07-30T02:15:58;15.00;99.90
54518;DHT22;40423;53.176;6.002;2022-07-30T02:18:33;15.00;99.90
54518;DHT22;40423;53.176;6.002;2022-07-30T02:21:06;15.10;99.90
54518;DHT22;40423;53.176;6.002;2022-07-30T02:23:40;15.00;99.90
54518;DHT22;40423;53.176;6.002;2022-07-30T02:26:08;15.00;99.90
54518;DHT22;40423;53.176;6.002;2022-07-30T02:28:38;14.90;99.90
54518;DHT22;40423;53.176;6.002;2022-07-30T02:31:07;14.90;99.90
54518;DHT22;40423;53.176;6.002;2022-07-30T02:33:37;14.90;99.90
54518;DHT22;40423;53.176;6.002;2022-07-30T02:36:06;14.80;99.90
54518;DHT22;40423;53.176;6.002;2022-07-30T02:38:35;14.80;99.90
54518;DHT22;40423;53.176;6.002;2022-07-30T02:41:02;14.70;99.90
54518;DHT22;40423;53.176;6.002;2022-07-30T02:43:29;14.70;99.90
54518;DHT22;40423;53.176;6.002;2022-07-30T02:45:57;14.70;99.90
54518;DHT22;40423;53.176;6.002;2022-07-30T02:48:26;14.70;99.90
54518;DHT22;40423;53.176;6.002;2022-07-30T02:50:53;14.70;99.90
54518;DHT22;40423;53.176;6.002;2022-07-30T02:53:21;14.70;99.90
54518;DHT22;40423;53.176;6.002;2022-07-30T02:55:48;14.70;99.90
54518;DHT22;40423;53.176;6.002;2022-07-30T02:58:19;14.60;99.90
54518;DHT22;40423;53.176;6.002;2022-07-30T03:00:48;14.60;99.90
54518;DHT22;40423;53.176;6.002;2022-07-30T03:03:15;14.50;99.90
54518;DHT22;40423;53.176;6.002;2022-07-30T03:05:42;14.50;99.90
54518;DHT22;40423;53.176;6.002;2022-07-30T03:08:09;14.50;99.90
54518;DHT22;40423;53.176;6.002;2022-07-30T03:10:36;14.40;99.90
54518;DHT22;40423;53.176;6.002;2022-07-30T03:13:05;14.40;99.90
54518;DHT22;40423;53.176;6.002;2022-07-30T03:15:33;14.40;99.90
54518;DHT22;40423;53.176;6.002;2022-07-30T03:18:00;14.30;99.90
54518;DHT22;40423;53.176;6.002;2022-07-30T03:20:29;14.30;99.90
54518;DHT22;40423;53.176;6.002;2022-07-30T03:22:57;14.20;99.90
54518;DHT22;40423;53.176;6.002;2022-07-30T03:25:25;14.20;99.90
54518;DHT22;40423;53.176;6.002;2022-07-30T03:27:54;14.20;99.90
54518;DHT22;40423;53.176;6.002;2022-07-30T03:30:22;14.30;99.90
54518;DHT22;40423;53.176;6.002;2022-07-30T03:32:49;14.30;99.90
54518;DHT22;40423;53.176;6.002;2022-07-30T03:35:16;14.30;99.90
54518;DHT22;40423;53.176;6.002;2022-07-30T03:37:42;14.40;99.90
54518;DHT22;40423;53.176;6.002;2022-07-30T03:40:08;14.40;99.90
54518;DHT22;40423;53.176;6.002;2022-07-30T03:42:35;14.30;99.90
54518;DHT22;40423;53.176;6.002;2022-07-30T03:45:04;14.30;99.90
54518;DHT22;40423;53.176;6.002;2022-07-30T03:47:32;14.20;99.90
54518;DHT22;40423;53.176;6.002;2022-07-30T03:49:59;14.20;99.90
54518;DHT22;40423;53.176;6.002;2022-07-30T03:52:26;14.10;99.90
54518;DHT22;40423;53.176;6.002;2022-07-30T03:54:52;14.10;99.90
54518;DHT22;40423;53.176;6.002;2022-07-30T03:57:18;14.00;99.90
54518;DHT22;40423;53.176;6.002;2022-07-30T03:59:44;14.00;99.90
54518;DHT22;40423;53.176;6.002;2022-07-30T04:02:11;14.00;99.90
54518;DHT22;40423;53.176;6.002;2022-07-30T04:04:41;14.00;99.90
54518;DHT22;40423;53.176;6.002;2022-07-30T04:07:08;13.90;99.90
54518;DHT22;40423;53.176;6.002;2022-07-30T04:09:34;14.00;99.90
54518;DHT22;40423;53.176;6.002;2022-07-30T04:11:59;13.90;99.90
54518;DHT22;40423;53.176;6.002;2022-07-30T04:14:25;14.00;99.90
54518;DHT22;40423;53.176;6.002;2022-07-30T04:17:20;14.00;99.90
54518;DHT22;40423;53.176;6.002;2022-07-30T04:19:56;14.00;99.90
54518;DHT22;40423;53.176;6.002;2022-07-30T04:22:27;14.00;99.90
54518;DHT22;40423;53.176;6.002;2022-07-30T04:24:55;14.00;99.90
54518;DHT22;40423;53.176;6.002;2022-07-30T04:27:22;14.00;99.90
54518;DHT22;40423;53.176;6.002;2022-07-30T04:29:51;14.00;99.90
54518;DHT22;40423;53.176;6.002;2022-07-30T04:32:17;14.00;99.90
54518;DHT22;40423;53.176;6.002;2022-07-30T04:34:51;14.30;99.90
54518;DHT22;40423;53.176;6.002;2022-07-30T04:37:22;14.00;99.90
54518;DHT22;40423;53.176;6.002;2022-07-30T04:39:49;14.00;99.90
54518;DHT22;40423;53.176;6.002;2022-07-30T04:42:21;14.10;99.90
54518;DHT22;40423;53.176;6.002;2022-07-30T04:44:47;14.10;99.90
54518;DHT22;40423;53.176;6.002;2022-07-30T04:47:14;14.10;99.90
54518;DHT22;40423;53.176;6.002;2022-07-30T04:49:41;14.10;99.90
54518;DHT22;40423;53.176;6.002;2022-07-30T04:52:08;14.10;99.90
54518;DHT22;40423;53.176;6.002;2022-07-30T04:54:44;14.20;99.90
54518;DHT22;40423;53.176;6.002;2022-07-30T04:57:12;14.20;99.90
54518;DHT22;40423;53.176;6.002;2022-07-30T04:59:38;14.30;99.90
54518;DHT22;40423;53.176;6.002;2022-07-30T05:02:05;14.30;99.90
54518;DHT22;40423;53.176;6.002;2022-07-30T05:04:33;14.30;99.90
54518;DHT22;40423;53.176;6.002;2022-07-30T05:07:00;14.30;99.90
54518;DHT22;40423;53.176;6.002;2022-07-30T05:09:27;14.40;99.90
54518;DHT22;40423;53.176;6.002;2022-07-30T05:11:54;14.40;99.90
54518;DHT22;40423;53.176;6.002;2022-07-30T05:14:21;14.50;99.90
54518;DHT22;40423;53.176;6.002;2022-07-30T05:16:47;14.60;99.90
54518;DHT22;40423;53.176;6.002;2022-07-30T05:19:13;14.60;99.90
54518;DHT22;40423;53.176;6.002;2022-07-30T05:21:39;14.60;99.90
54518;DHT22;40423;53.176;6.002;2022-07-30T05:24:05;14.70;99.90
54518;DHT22;40423;53.176;6.002;2022-07-30T05:26:31;14.80;99.90
54518;DHT22;40423;53.176;6.002;2022-07-30T05:28:57;14.90;99.90
54518;DHT22;40423;53.176;6.002;2022-07-30T05:31:23;15.00;99.90
54518;DHT22;40423;53.176;6.002;2022-07-30T05:33:49;15.10;99.90
54518;DHT22;40423;53.176;6.002;2022-07-30T05:36:15;15.10;99.90
54518;DHT22;40423;53.176;6.002;2022-07-30T05:38:41;15.30;99.90
54518;DHT22;40423;53.176;6.002;2022-07-30T05:41:06;15.30;99.90
54518;DHT22;40423;53.176;6.002;2022-07-30T05:43:32;15.40;99.90
54518;DHT22;40423;53.176;6.002;2022-07-30T05:45:58;15.50;99.90
54518;DHT22;40423;53.176;6.002;2022-07-30T05:48:23;15.60;99.90
54518;DHT22;40423;53.176;6.002;2022-07-30T05:50:51;15.80;99.90
54518;DHT22;40423;53.176;6.002;2022-07-30T05:53:16;15.90;99.90
54518;DHT22;40423;53.176;6.002;2022-07-30T05:55:42;16.10;99.90
54518;DHT22;40423;53.176;6.002;2022-07-30T05:58:08;16.20;99.90
54518;DHT22;40423;53.176;6.002;2022-07-30T06:00:33;16.40;99.90
54518;DHT22;40423;53.176;6.002;2022-07-30T06:03:00;16.50;99.90
54518;DHT22;40423;53.176;6.002;2022-07-30T06:05:26;16.60;99.90
54518;DHT22;40423;53.176;6.002;2022-07-30T06:07:53;16.70;99.90
54518;DHT22;40423;53.176;6.002;2022-07-30T06:10:19;16.90;99.90
54518;DHT22;40423;53.176;6.002;2022-07-30T06:12:44;16.90;99.90
54518;DHT22;40423;53.176;6.002;2022-07-30T06:15:10;17.10;99.90
54518;DHT22;40423;53.176;6.002;2022-07-30T06:17:43;17.20;99.90
54518;DHT22;40423;53.176;6.002;2022-07-30T06:20:11;17.20;99.90
54518;DHT22;40423;53.176;6.002;2022-07-30T06:22:37;17.30;99.90
54518;DHT22;40423;53.176;6.002;2022-07-30T06:25:04;17.40;99.90
54518;DHT22;40423;53.176;6.002;2022-07-30T06:27:29;17.50;99.90
54518;DHT22;40423;53.176;6.002;2022-07-30T06:30:02;17.70;99.90
54518;DHT22;40423;53.176;6.002;2022-07-30T06:32:28;17.70;99.90
54518;DHT22;40423;53.176;6.002;2022-07-30T06:34:54;17.80;99.90
54518;DHT22;40423;53.176;6.002;2022-07-30T06:37:20;18.00;99.90
54518;DHT22;40423;53.176;6.002;2022-07-30T06:39:46;18.10;99.90
54518;DHT22;40423;53.176;6.002;2022-07-30T06:42:11;18.20;99.90
54518;DHT22;40423;53.176;6.002;2022-07-30T06:44:37;18.40;99.90
54518;DHT22;40423;53.176;6.002;2022-07-30T06:47:03;18.40;99.90
54518;DHT22;40423;53.176;6.002;2022-07-30T06:49:35;18.40;99.90
54518;DHT22;40423;53.176;6.002;2022-07-30T06:52:01;18.50;99.90
54518;DHT22;40423;53.176;6.002;2022-07-30T06:54:27;18.50;99.90
54518;DHT22;40423;53.176;6.002;2022-07-30T06:56:53;18.60;99.90
54518;DHT22;40423;53.176;6.002;2022-07-30T06:59:19;18.50;99.90
54518;DHT22;40423;53.176;6.002;2022-07-30T07:01:45;18.60;99.90
54518;DHT22;40423;53.176;6.002;2022-07-30T07:04:11;18.60;99.90
54518;DHT22;40423;53.176;6.002;2022-07-30T07:06:37;18.70;99.90
54518;DHT22;40423;53.176;6.002;2022-07-30T07:09:03;18.80;99.90
54518;DHT22;40423;53.176;6.002;2022-07-30T07:11:29;18.90;99.90
54518;DHT22;40423;53.176;6.002;2022-07-30T07:13:55;18.90;99.90
54518;DHT22;40423;53.176;6.002;2022-07-30T07:16:21;19.00;99.90
54518;DHT22;40423;53.176;6.002;2022-07-30T07:18:53;19.10;99.90
54518;DHT22;40423;53.176;6.002;2022-07-30T07:21:19;19.20;99.90
54518;DHT22;40423;53.176;6.002;2022-07-30T07:23:45;19.30;99.90
54518;DHT22;40423;53.176;6.002;2022-07-30T07:26:13;19.30;99.90
54518;DHT22;40423;53.176;6.002;2022-07-30T07:28:39;19.10;99.90
54518;DHT22;40423;53.176;6.002;2022-07-30T07:31:06;19.00;99.90
54518;DHT22;40423;53.176;6.002;2022-07-30T07:33:31;19.00;99.90
54518;DHT22;40423;53.176;6.002;2022-07-30T07:35:57;19.10;99.90
54518;DHT22;40423;53.176;6.002;2022-07-30T07:38:23;19.30;99.90
54518;DHT22;40423;53.176;6.002;2022-07-30T07:40:48;19.40;99.90
54518;DHT22;40423;53.176;6.002;2022-07-30T07:43:14;19.40;99.90
54518;DHT22;40423;53.176;6.002;2022-07-30T07:45:43;19.20;99.90
54518;DHT22;40423;53.176;6.002;2022-07-30T07:48:10;19.20;99.90
54518;DHT22;40423;53.176;6.002;2022-07-30T07:50:35;19.30;99.90
54518;DHT22;40423;53.176;6.002;2022-07-30T07:53:01;19.40;99.90
54518;DHT22;40423;53.176;6.002;2022-07-30T07:55:27;19.60;99.90
54518;DHT22;40423;53.176;6.002;2022-07-30T07:57:52;19.50;99.90
54518;DHT22;40423;53.176;6.002;2022-07-30T08:00:18;19.70;99.90
54518;DHT22;40423;53.176;6.002;2022-07-30T08:02:44;19.90;99.90
54518;DHT22;40423;53.176;6.002;2022-07-30T08:05:10;20.00;99.90
54518;DHT22;40423;53.176;6.002;2022-07-30T08:07:40;20.00;99.90
54518;DHT22;40423;53.176;6.002;2022-07-30T08:10:07;20.10;99.90
54518;DHT22;40423;53.176;6.002;2022-07-30T08:12:33;20.20;99.90
54518;DHT22;40423;53.176;6.002;2022-07-30T08:14:59;20.20;99.90
54518;DHT22;40423;53.176;6.002;2022-07-30T08:17:25;20.30;99.90
54518;DHT22;40423;53.176;6.002;2022-07-30T08:19:51;20.50;99.90
54518;DHT22;40423;53.176;6.002;2022-07-30T08:22:17;20.60;99.90
54518;DHT22;40423;53.176;6.002;2022-07-30T08:24:43;20.50;99.90
54518;DHT22;40423;53.176;6.002;2022-07-30T08:27:09;20.50;99.90
54518;DHT22;40423;53.176;6.002;2022-07-30T08:29:34;20.60;99.90
54518;DHT22;40423;53.176;6.002;2022-07-30T08:32:01;20.60;99.90
54518;DHT22;40423;53.176;6.002;2022-07-30T08:34:26;20.40;99.90
54518;DHT22;40423;53.176;6.002;2022-07-30T08:36:54;20.40;99.90
54518;DHT22;40423;53.176;6.002;2022-07-30T08:39:20;20.20;99.90
54518;DHT22;40423;53.176;6.002;2022-07-30T08:41:46;20.40;99.90
54518;DHT22;40423;53.176;6.002;2022-07-30T08:44:14;20.60;99.90
54518;DHT22;40423;53.176;6.002;2022-07-30T08:46:42;20.80;99.90
54518;DHT22;40423;53.176;6.002;2022-07-30T08:49:10;21.00;99.90
54518;DHT22;40423;53.176;6.002;2022-07-30T08:51:37;21.30;99.90
54518;DHT22;40423;53.176;6.002;2022-07-30T08:54:03;21.00;99.90
54518;DHT22;40423;53.176;6.002;2022-07-30T08:56:32;20.70;99.90
54518;DHT22;40423;53.176;6.002;2022-07-30T08:59:02;20.80;99.90
54518;DHT22;40423;53.176;6.002;2022-07-30T09:01:28;21.10;99.90
54518;DHT22;40423;53.176;6.002;2022-07-30T09:03:54;21.50;99.90
54518;DHT22;40423;53.176;6.002;2022-07-30T09:06:20;21.60;99.90
54518;DHT22;40423;53.176;6.002;2022-07-30T09:08:45;21.50;99.90
54518;DHT22;40423;53.176;6.002;2022-07-30T09:11:11;21.40;99.90
54518;DHT22;40423;53.176;6.002;2022-07-30T09:13:39;21.40;99.90
54518;DHT22;40423;53.176;6.002;2022-07-30T09:16:24;21.60;99.90
54518;DHT22;40423;53.176;6.002;2022-07-30T09:18:52;21.90;99.90
54518;DHT22;40423;53.176;6.002;2022-07-30T09:21:24;21.70;99.90
54518;DHT22;40423;53.176;6.002;2022-07-30T09:24:17;21.80;99.90
54518;DHT22;40423;53.176;6.002;2022-07-30T09:26:55;21.70;99.60
54518;DHT22;40423;53.176;6.002;2022-07-30T09:29:26;22.00;99.90
54518;DHT22;40423;53.176;6.002;2022-07-30T09:32:01;22.20;99.90
54518;DHT22;40423;53.176;6.002;2022-07-30T09:34:33;22.00;99.90
54518;DHT22;40423;53.176;6.002;2022-07-30T09:37:03;21.30;99.90
54518;DHT22;40423;53.176;6.002;2022-07-30T09:39:36;21.40;99.90
54518;DHT22;40423;53.176;6.002;2022-07-30T09:42:15;21.70;99.90
54518;DHT22;40423;53.176;6.002;2022-07-30T09:44:42;21.90;99.90
54518;DHT22;40423;53.176;6.002;2022-07-30T09:47:08;22.00;99.90
54518;DHT22;40423;53.176;6.002;2022-07-30T09:49:33;22.20;99.90
54518;DHT22;40423;53.176;6.002;2022-07-30T09:51:59;22.00;99.90
54518;DHT22;40423;53.176;6.002;2022-07-30T09:54:45;22.10;99.90
54518;DHT22;40423;53.176;6.002;2022-07-30T09:57:11;22.20;99.90
54518;DHT22;40423;53.176;6.002;2022-07-30T09:59:37;22.50;99.80
54518;DHT22;40423;53.176;6.002;2022-07-30T10:02:03;22.30;99.40
54518;DHT22;40423;53.176;6.002;2022-07-30T10:04:31;22.20;99.60
54518;DHT22;40423;53.176;6.002;2022-07-30T10:06:58;22.30;99.80
54518;DHT22;40423;53.176;6.002;2022-07-30T10:09:26;22.50;99.80
54518;DHT22;40423;53.176;6.002;2022-07-30T10:11:54;22.60;99.50
54518;DHT22;40423;53.176;6.002;2022-07-30T10:14:22;22.80;99.40
54518;DHT22;40423;53.176;6.002;2022-07-30T10:16:49;22.80;98.90
54518;DHT22;40423;53.176;6.002;2022-07-30T10:19:16;22.70;99.10
54518;DHT22;40423;53.176;6.002;2022-07-30T10:21:43;22.90;99.00
54518;DHT22;40423;53.176;6.002;2022-07-30T10:24:10;22.70;97.60
54518;DHT22;40423;53.176;6.002;2022-07-30T10:26:36;22.90;98.60
54518;DHT22;40423;53.176;6.002;2022-07-30T10:29:03;22.90;98.50
54518;DHT22;40423;53.176;6.002;2022-07-30T10:31:29;23.00;99.20
54518;DHT22;40423;53.176;6.002;2022-07-30T10:33:56;23.10;98.60
54518;DHT22;40423;53.176;6.002;2022-07-30T10:36:23;23.30;98.40
54518;DHT22;40423;53.176;6.002;2022-07-30T10:38:49;23.70;98.20
54518;DHT22;40423;53.176;6.002;2022-07-30T10:47:16;23.40;97.60
54518;DHT22;40423;53.176;6.002;2022-07-30T10:52:51;23.30;96.30
54518;DHT22;40423;53.176;6.002;2022-07-30T10:55:22;23.30;95.70
54518;DHT22;40423;53.176;6.002;2022-07-30T10:58:02;23.20;96.70
54518;DHT22;40423;53.176;6.002;2022-07-30T11:00:30;23.50;96.70
54518;DHT22;40423;53.176;6.002;2022-07-30T11:05:37;24.10;95.60
54518;DHT22;40423;53.176;6.002;2022-07-30T11:10:54;24.30;96.50
54518;DHT22;40423;53.176;6.002;2022-07-30T11:13:56;24.60;96.10
54518;DHT22;40423;53.176;6.002;2022-07-30T11:16:23;24.50;94.30
54518;DHT22;40423;53.176;6.002;2022-07-30T11:19:13;24.30;95.60
54518;DHT22;40423;53.176;6.002;2022-07-30T11:21:44;24.20;95.60
54518;DHT22;40423;53.176;6.002;2022-07-30T11:24:41;24.20;95.90
54518;DHT22;40423;53.176;6.002;2022-07-30T11:27:07;24.30;95.50
54518;DHT22;40423;53.176;6.002;2022-07-30T11:29:38;24.40;95.40
54518;DHT22;40423;53.176;6.002;2022-07-30T11:32:26;24.50;94.90
54518;DHT22;40423;53.176;6.002;2022-07-30T11:40:27;24.20;94.60
54518;DHT22;40423;53.176;6.002;2022-07-30T11:43:22;23.70;94.20
54518;DHT22;40423;53.176;6.002;2022-07-30T11:49:02;24.20;94.80
54518;DHT22;40423;53.176;6.002;2022-07-30T11:51:44;24.50;94.90
54518;DHT22;40423;53.176;6.002;2022-07-30T11:54:11;24.80;93.80
54518;DHT22;40423;53.176;6.002;2022-07-30T11:56:47;24.90;94.10
54518;DHT22;40423;53.176;6.002;2022-07-30T11:59:13;25.00;92.50
54518;DHT22;40423;53.176;6.002;2022-07-30T12:01:38;24.90;93.30
54518;DHT22;40423;53.176;6.002;2022-07-30T12:04:06;24.80;93.20
54518;DHT22;40423;53.176;6.002;2022-07-30T12:06:35;24.50;92.10
54518;DHT22;40423;53.176;6.002;2022-07-30T12:09:07;24.30;93.30
54518;DHT22;40423;53.176;6.002;2022-07-30T12:11:34;24.40;94.00
54518;DHT22;40423;53.176;6.002;2022-07-30T12:14:01;24.90;94.20
54518;DHT22;40423;53.176;6.002;2022-07-30T12:16:28;25.30;93.40
54518;DHT22;40423;53.176;6.002;2022-07-30T12:19:03;25.10;92.10
54518;DHT22;40423;53.176;6.002;2022-07-30T12:21:30;24.00;91.20
54518;DHT22;40423;53.176;6.002;2022-07-30T12:24:04;24.30;92.90
54518;DHT22;40423;53.176;6.002;2022-07-30T12:26:34;24.30;91.50
54518;DHT22;40423;53.176;6.002;2022-07-30T12:29:04;24.20;92.70
54518;DHT22;40423;53.176;6.002;2022-07-30T12:31:30;24.70;91.90
54518;DHT22;40423;53.176;6.002;2022-07-30T12:33:57;25.00;92.00
54518;DHT22;40423;53.176;6.002;2022-07-30T12:36:33;25.30;90.80
54518;DHT22;40423;53.176;6.002;2022-07-30T12:39:04;25.50;91.70
54518;DHT22;40423;53.176;6.002;2022-07-30T12:41:45;25.40;90.20
54518;DHT22;40423;53.176;6.002;2022-07-30T12:44:41;25.40;91.50
54518;DHT22;40423;53.176;6.002;2022-07-30T12:47:19;25.50;90.20
54518;DHT22;40423;53.176;6.002;2022-07-30T12:49:46;25.40;90.60
54518;DHT22;40423;53.176;6.002;2022-07-30T12:52:38;25.10;87.40
54518;DHT22;40423;53.176;6.002;2022-07-30T12:55:07;25.10;89.00
54518;DHT22;40423;53.176;6.002;2022-07-30T13:00:30;25.30;87.10
54518;DHT22;40423;53.176;6.002;2022-07-30T13:02:56;25.10;89.40
54518;DHT22;40423;53.176;6.002;2022-07-30T13:05:42;25.00;88.80
54518;DHT22;40423;53.176;6.002;2022-07-30T13:08:07;24.90;90.20
54518;DHT22;40423;53.176;6.002;2022-07-30T13:10:33;24.50;89.60
54518;DHT22;40423;53.176;6.002;2022-07-30T13:12:59;24.60;90.50
54518;DHT22;40423;53.176;6.002;2022-07-30T13:15:26;24.80;90.30
54518;DHT22;40423;53.176;6.002;2022-07-30T13:17:52;25.10;90.00
54518;DHT22;40423;53.176;6.002;2022-07-30T13:20:18;24.90;90.20
54518;DHT22;40423;53.176;6.002;2022-07-30T13:22:44;25.20;90.00
54518;DHT22;40423;53.176;6.002;2022-07-30T13:25:10;25.40;85.80
54518;DHT22;40423;53.176;6.002;2022-07-30T13:27:37;25.20;86.40
54518;DHT22;40423;53.176;6.002;2022-07-30T13:30:03;25.10;88.40
54518;DHT22;40423;53.176;6.002;2022-07-30T13:32:29;25.20;88.40
54518;DHT22;40423;53.176;6.002;2022-07-30T13:34:56;25.40;88.80
54518;DHT22;40423;53.176;6.002;2022-07-30T13:37:21;25.20;86.90
54518;DHT22;40423;53.176;6.002;2022-07-30T13:39:47;24.80;85.50
54518;DHT22;40423;53.176;6.002;2022-07-30T13:42:14;24.60;86.20
54518;DHT22;40423;53.176;6.002;2022-07-30T13:44:40;24.70;86.80
54518;DHT22;40423;53.176;6.002;2022-07-30T13:47:05;24.10;81.80
54518;DHT22;40423;53.176;6.002;2022-07-30T13:49:34;24.20;83.80
54518;DHT22;40423;53.176;6.002;2022-07-30T13:52:08;24.40;82.40
54518;DHT22;40423;53.176;6.002;2022-07-30T13:54:34;24.40;79.70
54518;DHT22;40423;53.176;6.002;2022-07-30T13:57:00;24.00;79.20
54518;DHT22;40423;53.176;6.002;2022-07-30T13:59:25;23.80;81.10
54518;DHT22;40423;53.176;6.002;2022-07-30T14:01:51;23.90;82.00
54518;DHT22;40423;53.176;6.002;2022-07-30T14:04:17;23.50;80.90
54518;DHT22;40423;53.176;6.002;2022-07-30T14:06:43;23.50;84.00
54518;DHT22;40423;53.176;6.002;2022-07-30T14:09:09;23.60;84.40
54518;DHT22;40423;53.176;6.002;2022-07-30T14:11:34;23.50;83.70
54518;DHT22;40423;53.176;6.002;2022-07-30T14:14:00;23.50;85.40
54518;DHT22;40423;53.176;6.002;2022-07-30T14:16:26;23.50;84.00
54518;DHT22;40423;53.176;6.002;2022-07-30T14:18:52;23.50;85.90
54518;DHT22;40423;53.176;6.002;2022-07-30T14:21:17;23.60;85.60
54518;DHT22;40423;53.176;6.002;2022-07-30T14:23:43;23.70;86.20
54518;DHT22;40423;53.176;6.002;2022-07-30T14:26:09;23.50;86.80
54518;DHT22;40423;53.176;6.002;2022-07-30T14:28:35;23.50;88.00
54518;DHT22;40423;53.176;6.002;2022-07-30T14:31:00;23.30;86.90
54518;DHT22;40423;53.176;6.002;2022-07-30T14:33:27;22.90;88.70
54518;DHT22;40423;53.176;6.002;2022-07-30T14:35:53;23.00;90.00
54518;DHT22;40423;53.176;6.002;2022-07-30T14:38:19;23.10;90.00
54518;DHT22;40423;53.176;6.002;2022-07-30T14:40:44;23.10;90.30
54518;DHT22;40423;53.176;6.002;2022-07-30T14:43:11;22.90;90.70
54518;DHT22;40423;53.176;6.002;2022-07-30T14:45:39;23.00;91.40
54518;DHT22;40423;53.176;6.002;2022-07-30T14:48:05;23.10;91.70
54518;DHT22;40423;53.176;6.002;2022-07-30T14:50:30;23.00;91.10
54518;DHT22;40423;53.176;6.002;2022-07-30T14:52:56;23.00;91.40
54518;DHT22;40423;53.176;6.002;2022-07-30T14:55:22;23.10;91.80
54518;DHT22;40423;53.176;6.002;2022-07-30T14:57:48;23.10;92.00
54518;DHT22;40423;53.176;6.002;2022-07-30T15:00:14;23.10;91.90
54518;DHT22;40423;53.176;6.002;2022-07-30T15:02:40;23.10;92.00
54518;DHT22;40423;53.176;6.002;2022-07-30T15:05:06;23.20;92.00
54518;DHT22;40423;53.176;6.002;2022-07-30T15:07:32;23.20;92.00
54518;DHT22;40423;53.176;6.002;2022-07-30T15:09:58;23.30;91.80
54518;DHT22;40423;53.176;6.002;2022-07-30T15:12:23;23.40;91.80
54518;DHT22;40423;53.176;6.002;2022-07-30T15:14:49;23.50;91.60
54518;DHT22;40423;53.176;6.002;2022-07-30T15:17:15;23.50;91.70
54518;DHT22;40423;53.176;6.002;2022-07-30T15:19:41;23.50;91.50
54518;DHT22;40423;53.176;6.002;2022-07-30T15:22:06;23.10;91.70
54518;DHT22;40423;53.176;6.002;2022-07-30T15:24:32;23.10;92.20
54518;DHT22;40423;53.176;6.002;2022-07-30T15:26:58;23.10;92.30
54518;DHT22;40423;53.176;6.002;2022-07-30T15:29:24;23.00;92.60
54518;DHT22;40423;53.176;6.002;2022-07-30T15:31:52;22.90;92.70
54518;DHT22;40423;53.176;6.002;2022-07-30T15:34:18;22.90;92.70
54518;DHT22;40423;53.176;6.002;2022-07-30T15:36:44;22.70;92.70
54518;DHT22;40423;53.176;6.002;2022-07-30T15:39:10;22.70;92.80
54518;DHT22;40423;53.176;6.002;2022-07-30T15:41:36;22.80;93.10
54518;DHT22;40423;53.176;6.002;2022-07-30T15:44:03;22.80;93.00
54518;DHT22;40423;53.176;6.002;2022-07-30T15:46:28;23.00;93.40
54518;DHT22;40423;53.176;6.002;2022-07-30T15:48:55;22.90;92.70
54518;DHT22;40423;53.176;6.002;2022-07-30T15:51:20;22.90;92.60
54518;DHT22;40423;53.176;6.002;2022-07-30T15:53:46;22.80;93.20
54518;DHT22;40423;53.176;6.002;2022-07-30T15:56:12;22.90;93.30
54518;DHT22;40423;53.176;6.002;2022-07-30T15:58:40;22.70;93.10
54518;DHT22;40423;53.176;6.002;2022-07-30T16:01:07;22.70;93.50
54518;DHT22;40423;53.176;6.002;2022-07-30T16:03:33;22.80;93.70